Time;durP1;ratioP1;P1;durP2;ratioP2;P2;SDS_P1;SDS_P2;PMS_P1;PMS_P2;Temp;Humidity;BMP_temperature;BMP_pressure;BME280_temperature;BME280_humidity;BME280_pressure;Samples;Min_cycle;Max_cycle;Signal;HPM_P1;HPM_P2
2022/01/30 00:00:18;;;;;;;2.30;1.00;;;6.50;99.90;;;;;;5014515;28;20176;-54
2022/01/30 00:02:44;;;;;;;1.73;1.00;;;6.50;99.90;;;;;;5149629;22;20238;-58
2022/01/30 00:05:10;;;;;;;0.80;0.80;;;6.60;99.90;;;;;;5050376;28;20254;-59
2022/01/30 00:07:35;;;;;;;0.67;0.67;;;6.60;99.90;;;;;;5053458;28;20191;-59
2022/01/30 00:10:02;;;;;;;0.97;0.93;;;6.60;99.90;;;;;;5053579;28;20214;-58
2022/01/30 00:12:42;;;;;;;0.63;0.63;;;6.50;99.90;;;;;;5053593;28;20209;-59
2022/01/30 00:15:08;;;;;;;0.70;0.70;;;6.50;99.90;;;;;;5053331;28;20700;-59
2022/01/30 00:17:40;;;;;;;1.03;1.00;;;6.50;99.90;;;;;;5053753;28;20266;-57
2022/01/30 00:20:12;;;;;;;2.07;0.80;;;6.50;99.90;;;;;;5053926;28;20190;-59
2022/01/30 00:22:46;;;;;;;0.87;0.87;;;6.50;99.90;;;;;;5053472;28;20191;-59
2022/01/30 00:25:18;;;;;;;0.70;0.70;;;6.50;99.90;;;;;;5053457;28;20573;-59
2022/01/30 00:27:50;;;;;;;0.80;0.80;;;6.60;99.90;;;;;;5053814;28;20238;-59
2022/01/30 00:30:17;;;;;;;0.77;0.60;;;6.50;99.90;;;;;;5053877;28;20190;-59
2022/01/30 00:32:44;;;;;;;0.87;0.87;;;6.50;99.90;;;;;;5053430;28;20191;-59
2022/01/30 00:35:10;;;;;;;2.00;0.93;;;6.60;99.90;;;;;;5053455;28;20179;-59
2022/01/30 00:37:41;;;;;;;2.03;0.80;;;6.50;99.90;;;;;;5053445;28;20183;-59
2022/01/30 00:40:08;;;;;;;0.90;0.63;;;6.40;99.90;;;;;;5053294;28;20186;-60
2022/01/30 00:42:34;;;;;;;1.03;0.70;;;6.40;99.90;;;;;;5053398;28;20260;-60
2022/01/30 00:44:59;;;;;;;0.87;0.80;;;6.40;99.90;;;;;;5052744;28;20632;-59
2022/01/30 00:47:25;;;;;;;0.90;0.90;;;6.40;99.90;;;;;;5053157;28;20175;-59
2022/01/30 00:49:51;;;;;;;0.50;0.50;;;6.40;99.90;;;;;;5053502;28;20208;-59
2022/01/30 00:52:17;;;;;;;1.20;0.70;;;6.30;99.90;;;;;;5053149;28;20199;-58
2022/01/30 00:54:46;;;;;;;0.70;0.70;;;6.30;99.90;;;;;;5052957;28;20238;-57
2022/01/30 00:57:11;;;;;;;0.47;0.47;;;6.30;99.90;;;;;;5053205;28;20171;-59
2022/01/30 00:59:37;;;;;;;0.70;0.70;;;6.30;99.90;;;;;;5053304;28;20225;-57
2022/01/30 01:02:03;;;;;;;1.00;0.90;;;6.40;99.90;;;;;;5052867;28;20211;-55
2022/01/30 01:04:29;;;;;;;1.60;0.90;;;6.40;99.90;;;;;;5052866;28;20175;-55
2022/01/30 01:06:55;;;;;;;1.07;0.80;;;6.40;99.90;;;;;;5053133;28;20175;-56
2022/01/30 01:09:25;;;;;;;0.77;0.70;;;6.40;99.90;;;;;;5052872;28;20182;-55
2022/01/30 01:25:12;;;;;;;1.00;1.00;;;6.50;99.90;;;;;;5052481;28;20232;-57
2022/01/30 01:27:38;;;;;;;1.17;0.90;;;6.50;99.90;;;;;;5052591;28;20187;-50
2022/01/30 01:30:04;;;;;;;0.87;0.70;;;6.50;99.90;;;;;;5052678;28;20174;-54
2022/01/30 01:32:30;;;;;;;0.73;0.73;;;6.60;99.90;;;;;;5052581;28;20195;-54
2022/01/30 01:34:55;;;;;;;1.10;1.00;;;6.50;99.90;;;;;;5052070;28;20249;-52
2022/01/30 01:37:21;;;;;;;0.83;0.83;;;6.60;99.90;;;;;;5052507;28;20175;-54
2022/01/30 01:39:46;;;;;;;1.10;1.00;;;6.60;99.90;;;;;;5052372;28;20171;-56
2022/01/30 01:42:15;;;;;;;1.43;0.80;;;6.60;99.90;;;;;;5052444;28;20605;-53
2022/01/30 01:44:50;;;;;;;1.43;0.80;;;6.60;99.90;;;;;;5052024;28;20168;-57
2022/01/30 01:47:20;;;;;;;2.37;1.20;;;6.70;99.90;;;;;;5052336;28;20682;-58
2022/01/30 01:49:47;;;;;;;2.57;1.10;;;6.60;99.90;;;;;;5052152;28;20220;-59
2022/01/30 01:52:19;;;;;;;1.10;1.00;;;6.70;99.90;;;;;;5052286;28;20602;-57
2022/01/30 01:54:54;;;;;;;1.63;1.13;;;6.70;99.90;;;;;;5051880;28;20264;-57
2022/01/30 01:57:20;;;;;;;2.40;1.03;;;6.70;99.90;;;;;;5051313;28;20194;-59
2022/01/30 01:59:46;;;;;;;3.17;1.07;;;6.70;99.90;;;;;;5052196;28;20186;-59
2022/01/30 02:02:12;;;;;;;1.03;0.93;;;6.70;99.90;;;;;;5051849;28;20207;-58
2022/01/30 02:04:40;;;;;;;1.43;1.27;;;6.60;99.90;;;;;;5051824;28;20600;-59
2022/01/30 02:09:51;;;;;;;1.00;1.00;;;6.50;99.90;;;;;;5052225;28;20556;-59
2022/01/30 02:12:23;;;;;;;1.30;1.20;;;6.50;99.90;;;;;;5051988;28;20183;-59
2022/01/30 02:25:44;;;;;;;1.00;1.00;;;6.40;99.90;;;;;;5052021;28;20233;-52
2022/01/30 02:28:16;;;;;;;1.03;0.90;;;6.30;99.90;;;;;;5051822;28;20603;-53
2022/01/30 02:31:06;;;;;;;1.80;0.90;;;6.30;99.90;;;;;;5051803;28;20175;-56
2022/01/30 02:33:30;;;;;;;1.10;1.00;;;6.30;99.90;;;;;;5051487;28;20261;-55
2022/01/30 02:35:56;;;;;;;1.00;0.80;;;6.30;99.90;;;;;;5051333;28;20640;-53
2022/01/30 02:38:23;;;;;;;0.73;0.70;;;6.30;99.90;;;;;;5051695;28;20206;-57
2022/01/30 02:40:51;;;;;;;0.90;0.70;;;6.30;99.90;;;;;;5051757;28;20171;-57
2022/01/30 02:43:21;;;;;;;1.43;0.60;;;6.40;99.90;;;;;;5051562;28;20194;-57
2022/01/30 02:46:00;;;;;;;0.70;0.70;;;6.30;99.90;;;;;;5051376;28;20640;-52
2022/01/30 02:48:33;;;;;;;0.77;0.63;;;6.30;99.90;;;;;;5051598;28;20274;-57
2022/01/30 02:51:11;;;;;;;0.60;0.60;;;6.30;99.90;;;;;;5051534;28;20203;-56
2022/01/30 02:53:44;;;;;;;0.70;0.70;;;6.30;99.90;;;;;;5051620;28;20210;-52
2022/01/30 02:56:09;;;;;;;0.70;0.70;;;6.20;99.90;;;;;;5051368;28;20163;-55
2022/01/30 02:58:35;;;;;;;1.87;0.80;;;6.20;99.90;;;;;;5051335;28;20225;-53
2022/01/30 03:01:00;;;;;;;0.80;0.80;;;6.20;99.90;;;;;;5051494;28;20175;-55
2022/01/30 03:03:26;;;;;;;4.07;0.83;;;6.20;99.90;;;;;;5051367;28;20215;-55
2022/01/30 03:05:52;;;;;;;1.03;0.93;;;6.10;99.90;;;;;;5051111;28;20163;-51
2022/01/30 03:08:17;;;;;;;0.77;0.77;;;6.20;99.90;;;;;;5051817;28;20211;-54
2022/01/30 03:10:43;;;;;;;1.17;0.90;;;6.10;99.90;;;;;;5055276;28;20175;-53
2022/01/30 03:13:08;;;;;;;0.97;0.83;;;6.10;99.90;;;;;;5055018;28;20214;-51
2022/01/30 03:15:35;;;;;;;0.83;0.83;;;6.10;99.90;;;;;;5054917;28;20229;-55
2022/01/30 03:18:01;;;;;;;0.73;0.73;;;6.10;99.90;;;;;;5055075;28;20167;-54
2022/01/30 03:20:27;;;;;;;0.57;0.50;;;6.10;99.90;;;;;;5055227;28;20543;-54
2022/01/30 03:22:52;;;;;;;0.70;0.70;;;6.00;99.90;;;;;;5054904;28;20195;-52
2022/01/30 03:25:18;;;;;;;0.80;0.80;;;6.00;99.90;;;;;;5054870;28;20232;-59
2022/01/30 03:27:50;;;;;;;1.13;0.73;;;5.90;99.90;;;;;;5055032;28;20175;-56
2022/01/30 03:30:23;;;;;;;0.90;0.90;;;6.00;99.90;;;;;;5054897;28;20259;-51
2022/01/30 03:32:49;;;;;;;1.10;0.90;;;5.90;99.90;;;;;;5055100;28;20253;-54
2022/01/30 03:35:15;;;;;;;1.37;0.80;;;5.90;99.90;;;;;;5054573;28;20594;-53
2022/01/30 03:37:40;;;;;;;1.37;1.27;;;5.90;99.90;;;;;;5054702;28;20320;-57
2022/01/30 03:40:06;;;;;;;1.27;1.17;;;5.80;99.90;;;;;;5054745;28;20197;-55
2022/01/30 03:42:32;;;;;;;2.00;0.90;;;5.80;99.90;;;;;;5054640;28;20195;-53
2022/01/30 03:44:58;;;;;;;1.77;1.20;;;5.80;99.90;;;;;;5054431;28;20186;-54
2022/01/30 03:47:26;;;;;;;1.37;1.27;;;5.80;99.90;;;;;;5054525;28;20175;-59
2022/01/30 03:49:52;;;;;;;2.30;1.50;;;5.80;99.90;;;;;;5054601;28;20175;-55
2022/01/30 03:52:17;;;;;;;2.70;1.70;;;5.80;99.90;;;;;;5054557;28;20195;-56
2022/01/30 03:54:43;;;;;;;3.00;1.60;;;5.80;99.90;;;;;;5054104;28;20195;-56
2022/01/30 03:57:09;;;;;;;4.40;1.80;;;5.80;99.90;;;;;;5054301;28;20167;-53
2022/01/30 03:59:34;;;;;;;2.57;1.77;;;5.70;99.90;;;;;;5054365;28;20607;-53
2022/01/30 04:02:00;;;;;;;3.47;1.70;;;5.70;99.90;;;;;;5054215;28;20293;-51
2022/01/30 04:04:26;;;;;;;5.43;2.30;;;5.70;99.90;;;;;;5054202;28;20253;-56
2022/01/30 04:06:54;;;;;;;3.33;1.90;;;5.70;99.90;;;;;;5054139;28;20206;-51
2022/01/30 04:09:20;;;;;;;3.40;1.80;;;5.70;99.90;;;;;;5054180;28;20259;-59
2022/01/30 04:11:45;;;;;;;2.43;1.50;;;5.60;99.90;;;;;;5054272;28;20226;-55
2022/01/30 04:14:11;;;;;;;2.03;1.40;;;5.60;99.90;;;;;;5053950;28;20201;-55
2022/01/30 04:16:37;;;;;;;4.30;2.03;;;5.50;99.90;;;;;;5053726;28;20183;-55
2022/01/30 04:19:04;;;;;;;2.77;1.37;;;5.50;99.90;;;;;;5052808;28;20171;-54
2022/01/30 04:21:30;;;;;;;2.67;1.30;;;5.50;99.90;;;;;;5052969;28;20168;-55
2022/01/30 04:23:55;;;;;;;2.20;1.40;;;5.50;99.90;;;;;;5053857;28;20644;-57
2022/01/30 04:26:21;;;;;;;1.83;1.27;;;5.50;99.90;;;;;;5053594;28;20175;-55
2022/01/30 04:28:47;;;;;;;1.93;1.33;;;5.50;99.90;;;;;;5053803;28;20202;-58
2022/01/30 04:31:13;;;;;;;2.93;1.50;;;5.50;99.90;;;;;;5053812;28;20178;-58
2022/01/30 04:33:39;;;;;;;3.30;1.67;;;5.60;99.90;;;;;;5053541;28;20202;-56
2022/01/30 04:36:08;;;;;;;2.70;1.60;;;5.60;99.90;;;;;;5053565;28;20167;-58
2022/01/30 04:38:54;;;;;;;2.90;1.70;;;5.50;99.90;;;;;;5053199;28;20179;-55
2022/01/30 04:57:37;;;;;;;5.63;2.40;;;5.70;99.90;;;;;;5053199;28;21031;-57
2022/01/30 05:02:54;;;;;;;3.70;2.13;;;5.80;99.90;;;;;;5035630;28;20229;-53
2022/01/30 05:07:47;;;;;;;3.10;1.80;;;5.60;99.90;;;;;;5052902;28;20224;-54
2022/01/30 05:10:13;;;;;;;2.70;1.57;;;5.60;99.90;;;;;;5053317;28;20262;-56
2022/01/30 05:12:52;;;;;;;3.00;1.30;;;5.50;99.90;;;;;;5052873;28;20210;-57
2022/01/30 05:15:19;;;;;;;2.57;1.50;;;5.50;99.90;;;;;;5052655;28;20706;-52
2022/01/30 05:17:45;;;;;;;3.20;1.60;;;5.50;99.90;;;;;;5052982;28;20178;-51
2022/01/30 05:20:11;;;;;;;2.20;1.40;;;5.40;99.90;;;;;;5052810;28;20552;-55
2022/01/30 05:22:37;;;;;;;2.23;1.70;;;5.40;99.90;;;;;;5052691;28;20282;-54
2022/01/30 05:25:03;;;;;;;3.97;1.87;;;5.40;99.90;;;;;;5052444;28;20620;-53
2022/01/30 05:27:29;;;;;;;2.33;1.73;;;5.40;99.90;;;;;;5052678;28;20175;-58
2022/01/30 05:29:56;;;;;;;2.63;1.70;;;5.50;99.90;;;;;;5052642;28;20273;-57
2022/01/30 05:32:21;;;;;;;4.87;2.10;;;5.50;99.90;;;;;;5052403;28;20198;-55
2022/01/30 05:34:47;;;;;;;4.53;2.30;;;5.50;99.90;;;;;;5052192;28;20361;-51
2022/01/30 05:37:18;;;;;;;5.20;2.63;;;5.50;99.90;;;;;;5052449;28;20236;-55
2022/01/30 05:39:44;;;;;;;5.10;2.63;;;5.60;99.90;;;;;;5052515;28;20163;-55
2022/01/30 05:42:12;;;;;;;8.77;2.33;;;5.60;99.90;;;;;;5052474;28;20195;-56
2022/01/30 05:44:53;;;;;;;2.23;2.00;;;5.70;99.90;;;;;;5052018;28;20206;-56
2022/01/30 05:47:29;;;;;;;4.67;2.10;;;5.70;99.90;;;;;;5052363;28;20190;-55
2022/01/30 05:49:55;;;;;;;3.20;2.10;;;5.70;99.90;;;;;;5052336;28;20194;-53
2022/01/30 05:52:22;;;;;;;2.93;1.93;;;5.60;99.90;;;;;;5052144;28;20199;-54
2022/01/30 05:54:48;;;;;;;3.20;2.30;;;5.50;99.90;;;;;;5051938;28;20198;-53
2022/01/30 05:57:13;;;;;;;3.50;2.20;;;5.60;99.90;;;;;;5052034;28;20232;-53
2022/01/30 05:59:39;;;;;;;3.47;2.13;;;5.50;99.90;;;;;;5052267;28;20183;-54
2022/01/30 06:02:05;;;;;;;3.60;1.90;;;5.50;99.90;;;;;;5064278;22;20206;-57
2022/01/30 06:04:30;;;;;;;5.37;2.20;;;5.50;99.90;;;;;;5029592;28;20658;-51
2022/01/30 06:06:57;;;;;;;3.77;2.27;;;5.60;99.90;;;;;;5031217;28;20267;-54
2022/01/30 06:09:23;;;;;;;4.03;2.47;;;5.70;99.90;;;;;;5031752;28;20179;-53
2022/01/30 06:11:52;;;;;;;4.13;2.10;;;5.70;99.90;;;;;;5042080;28;20178;-53
2022/01/30 06:14:22;;;;;;;5.03;2.00;;;5.80;99.90;;;;;;5031704;28;20552;-53
2022/01/30 06:16:49;;;;;;;6.63;2.77;;;5.90;99.90;;;;;;5031589;28;20604;-53
2022/01/30 06:19:15;;;;;;;4.70;2.20;;;6.00;99.90;;;;;;5031688;28;20245;-58
2022/01/30 06:21:40;;;;;;;3.87;2.50;;;5.90;99.90;;;;;;5031574;28;20646;-52
2022/01/30 06:24:06;;;;;;;4.87;2.43;;;5.80;99.90;;;;;;5014021;28;20202;-51
2022/01/30 06:26:31;;;;;;;8.33;2.93;;;5.80;99.90;;;;;;5031514;28;20182;-56
2022/01/30 06:28:57;;;;;;;6.43;3.00;;;5.70;99.90;;;;;;5031521;28;20230;-53
2022/01/30 06:31:23;;;;;;;4.80;2.40;;;5.60;99.90;;;;;;5031779;28;20182;-58
2022/01/30 06:33:50;;;;;;;6.03;2.70;;;5.70;99.90;;;;;;5031590;28;20210;-55
2022/01/30 06:36:15;;;;;;;5.37;2.47;;;5.80;99.90;;;;;;5031275;28;20175;-52
2022/01/30 06:38:41;;;;;;;7.67;2.97;;;5.60;99.90;;;;;;5031274;28;20171;-56
2022/01/30 06:41:06;;;;;;;5.13;2.60;;;5.50;99.90;;;;;;5031557;28;20230;-54
2022/01/30 06:43:32;;;;;;;4.97;2.77;;;5.50;99.90;;;;;;5031086;28;20204;-52
2022/01/30 06:45:57;;;;;;;5.70;2.33;;;5.40;99.90;;;;;;5035545;28;20171;-52
2022/01/30 06:48:23;;;;;;;8.63;3.10;;;5.50;99.90;;;;;;5035511;28;20176;-51
2022/01/30 06:50:49;;;;;;;5.83;3.10;;;5.40;99.90;;;;;;5035558;28;20267;-54
2022/01/30 06:53:14;;;;;;;6.73;2.90;;;5.30;99.90;;;;;;5035297;28;20529;-55
2022/01/30 06:55:42;;;;;;;8.03;2.73;;;5.30;99.90;;;;;;5035248;28;20641;-54
2022/01/30 06:58:14;;;;;;;16.20;3.27;;;5.20;99.90;;;;;;5035367;28;20251;-56
2022/01/30 07:00:40;;;;;;;6.37;2.80;;;5.20;99.90;;;;;;5035629;28;20172;-57
2022/01/30 07:03:06;;;;;;;6.70;2.73;;;5.20;99.90;;;;;;5035274;28;20218;-52
2022/01/30 07:05:31;;;;;;;7.20;2.90;;;5.20;99.90;;;;;;5035189;28;20168;-53
2022/01/30 07:07:57;;;;;;;5.70;2.50;;;5.20;99.90;;;;;;5035357;28;20183;-52
2022/01/30 07:10:23;;;;;;;6.03;2.40;;;5.20;99.90;;;;;;5035171;28;20171;-54
2022/01/30 07:12:49;;;;;;;10.77;3.13;;;5.20;99.90;;;;;;5027650;28;20191;-57
2022/01/30 07:15:15;;;;;;;8.83;2.80;;;5.20;99.90;;;;;;5034734;28;20755;-55
2022/01/30 07:17:41;;;;;;;6.30;3.00;;;5.20;99.90;;;;;;5035158;28;20164;-52
2022/01/30 07:20:08;;;;;;;5.50;2.30;;;5.20;99.90;;;;;;5035064;28;20251;-57
2022/01/30 07:22:34;;;;;;;6.83;2.47;;;5.30;99.90;;;;;;5034894;28;20620;-53
2022/01/30 07:25:00;;;;;;;7.90;2.57;;;5.30;99.90;;;;;;5034539;28;20168;-58
2022/01/30 07:27:25;;;;;;;5.53;2.40;;;5.10;99.90;;;;;;5034785;28;20254;-52
2022/01/30 07:29:51;;;;;;;8.10;2.97;;;5.10;99.90;;;;;;5034888;28;20712;-52
2022/01/30 07:32:16;;;;;;;7.07;2.70;;;5.10;99.90;;;;;;5034678;28;20206;-52
2022/01/30 07:34:44;;;;;;;6.40;2.60;;;5.10;99.90;;;;;;5034468;28;20295;-54
2022/01/30 07:37:11;;;;;;;5.07;2.77;;;5.10;99.90;;;;;;5034551;28;20227;-53
2022/01/30 07:39:37;;;;;;;5.33;2.63;;;5.20;99.90;;;;;;5034739;28;20230;-57
2022/01/30 07:42:04;;;;;;;7.80;2.50;;;6.60;99.90;;;;;;5034466;28;20200;-52
2022/01/30 07:44:30;;;;;;;8.43;2.70;;;5.40;99.90;;;;;;5033904;28;20168;-50
2022/01/30 07:46:56;;;;;;;9.97;2.77;;;5.30;99.90;;;;;;5034441;28;20172;-51
2022/01/30 07:49:21;;;;;;;6.37;2.43;;;5.20;99.90;;;;;;5034394;28;20541;-55
2022/01/30 07:51:47;;;;;;;4.93;2.30;;;5.30;99.90;;;;;;5034299;28;20176;-54
2022/01/30 07:54:13;;;;;;;5.70;2.50;;;6.10;99.90;;;;;;5034025;28;20575;-56
2022/01/30 07:56:39;;;;;;;4.20;2.00;;;7.20;99.90;;;;;;5032709;28;20168;-51
2022/01/30 07:59:04;;;;;;;8.70;2.63;;;7.80;99.90;;;;;;5034308;28;20217;-57
2022/01/30 08:01:30;;;;;;;6.73;2.20;;;7.40;99.90;;;;;;5034160;28;20222;-52
2022/01/30 08:03:55;;;;;;;9.03;2.40;;;6.90;99.90;;;;;;5033832;28;20212;-56
2022/01/30 08:06:21;;;;;;;5.57;2.20;;;6.70;99.90;;;;;;5033951;28;20180;-53
2022/01/30 08:08:46;;;;;;;8.17;2.70;;;6.60;99.90;;;;;;5033814;28;20572;-54
2022/01/30 08:11:12;;;;;;;5.90;2.63;;;6.50;99.90;;;;;;5034106;28;20720;-52
2022/01/30 08:13:38;;;;;;;6.53;2.27;;;6.90;99.90;;;;;;5033660;28;20198;-57
2022/01/30 08:16:05;;;;;;;7.87;2.30;;;8.00;99.90;;;;;;5033809;28;20218;-53
2022/01/30 08:18:30;;;;;;;7.07;2.53;;;8.90;99.90;;;;;;5033810;28;20202;-55
2022/01/30 08:20:56;;;;;;;7.53;2.40;;;9.90;99.90;;;;;;5033576;28;20168;-55
2022/01/30 08:23:23;;;;;;;5.37;1.90;;;11.30;99.90;;;;;;5033603;28;20204;-57
2022/01/30 08:25:49;;;;;;;4.50;1.97;;;11.20;99.90;;;;;;5033645;28;20760;-56
2022/01/30 08:28:15;;;;;;;3.97;1.70;;;12.00;99.90;;;;;;5033709;28;20271;-58
2022/01/30 08:30:41;;;;;;;4.13;1.90;;;12.20;99.90;;;;;;5033756;28;20226;-59
2022/01/30 08:33:06;;;;;;;4.20;1.90;;;11.80;99.90;;;;;;5033747;28;20200;-52
2022/01/30 08:35:32;;;;;;;5.83;2.30;;;11.60;99.90;;;;;;5033067;28;20188;-56
2022/01/30 08:37:59;;;;;;;7.93;2.40;;;11.60;99.90;;;;;;5033511;28;20549;-58
2022/01/30 08:40:26;;;;;;;5.93;2.23;;;11.90;99.90;;;;;;5033304;28;20185;-54
2022/01/30 08:42:51;;;;;;;7.37;2.20;;;11.70;99.90;;;;;;5033370;28;20229;-54
2022/01/30 08:45:19;;;;;;;3.90;1.80;;;12.00;99.90;;;;;;5033010;28;20256;-59
2022/01/30 08:47:46;;;;;;;5.80;2.30;;;12.30;99.90;;;;;;5033404;28;20190;-57
2022/01/30 08:50:14;;;;;;;6.13;2.43;;;12.50;98.60;;;;;;5033112;28;20218;-55
2022/01/30 08:52:39;;;;;;;7.00;2.60;;;12.60;96.90;;;;;;5033185;28;20202;-57
2022/01/30 08:55:07;;;;;;;6.37;2.37;;;11.50;96.80;;;;;;5032945;28;20199;-56
2022/01/30 08:57:33;;;;;;;8.23;2.43;;;9.90;99.90;;;;;;5032816;28;20603;-56
2022/01/30 08:59:59;;;;;;;5.67;2.30;;;9.10;99.90;;;;;;5033198;28;20176;-51
2022/01/30 09:02:25;;;;;;;6.47;2.40;;;10.20;99.90;;;;;;5032799;28;20258;-53
2022/01/30 09:04:51;;;;;;;5.20;2.30;;;11.90;99.10;;;;;;5032861;28;20179;-56
2022/01/30 09:07:17;;;;;;;6.33;2.13;;;13.10;98.20;;;;;;5032353;28;20648;-56
2022/01/30 09:09:43;;;;;;;4.57;2.10;;;14.70;97.20;;;;;;5033068;28;20184;-58
2022/01/30 09:12:09;;;;;;;5.47;2.10;;;15.50;93.90;;;;;;5032677;28;20562;-54
2022/01/30 09:14:38;;;;;;;5.50;2.00;;;15.50;94.30;;;;;;5032704;28;20215;-56
2022/01/30 09:17:12;;;;;;;6.17;2.40;;;15.80;94.20;;;;;;5032856;28;20698;-57
2022/01/30 09:19:38;;;;;;;4.17;2.10;;;16.10;92.80;;;;;;5032923;28;20172;-55
2022/01/30 09:22:04;;;;;;;4.37;1.90;;;16.10;92.70;;;;;;5032824;28;20195;-58
2022/01/30 09:24:30;;;;;;;5.80;2.17;;;16.50;92.90;;;;;;5032516;28;20179;-49
2022/01/30 09:26:55;;;;;;;4.73;2.27;;;16.30;91.40;;;;;;5031877;28;20180;-56
2022/01/30 09:29:22;;;;;;;4.50;2.30;;;16.00;91.30;;;;;;5031484;28;20190;-54
2022/01/30 09:31:49;;;;;;;6.47;2.50;;;14.20;91.20;;;;;;5031598;28;20287;-54
2022/01/30 09:34:14;;;;;;;7.40;2.67;;;12.10;94.10;;;;;;5031285;28;20211;-57
2022/01/30 09:36:40;;;;;;;8.73;2.43;;;11.40;96.00;;;;;;5030782;28;20669;-59
2022/01/30 09:39:05;;;;;;;4.70;2.30;;;11.80;96.00;;;;;;5031297;28;20176;-56
2022/01/30 09:41:32;;;;;;;6.60;2.23;;;12.70;95.80;;;;;;5031565;28;20175;-53
2022/01/30 09:44:00;;;;;;;6.63;2.63;;;13.70;94.30;;;;;;5030978;28;20195;-58
2022/01/30 09:46:28;;;;;;;5.13;2.27;;;14.20;93.80;;;;;;5031099;28;20665;-56
2022/01/30 09:48:54;;;;;;;6.87;2.40;;;15.10;92.60;;;;;;5031297;28;20219;-57
2022/01/30 09:51:20;;;;;;;4.90;2.17;;;15.40;91.10;;;;;;5028446;28;20172;-49
2022/01/30 09:53:45;;;;;;;5.67;2.30;;;14.10;92.50;;;;;;5031089;28;20203;-54
2022/01/30 09:56:11;;;;;;;6.10;1.90;;;11.80;91.60;;;;;;5030740;28;20238;-53
2022/01/30 09:58:36;;;;;;;6.83;2.13;;;9.80;94.40;;;;;;5031138;28;20217;-51
2022/01/30 10:01:02;;;;;;;5.47;1.93;;;9.10;95.60;;;;;;5030987;28;20204;-56
2022/01/30 10:03:27;;;;;;;7.10;2.37;;;9.20;96.30;;;;;;5013149;28;20218;-57
2022/01/30 10:06:11;;;;;;;7.27;2.33;;;9.10;95.60;;;;;;5030359;28;20168;-52
2022/01/30 10:08:42;;;;;;;5.00;2.10;;;8.70;96.60;;;;;;5030565;28;20199;-56
2022/01/30 10:11:27;;;;;;;7.90;2.20;;;8.50;97.90;;;;;;5030688;28;20250;-56
2022/01/30 10:14:10;;;;;;;5.60;2.17;;;8.00;97.60;;;;;;5029916;28;20200;-57
2022/01/30 10:16:49;;;;;;;7.13;2.30;;;7.70;99.40;;;;;;5030708;28;20168;-52
2022/01/30 10:19:20;;;;;;;6.87;2.37;;;7.80;99.90;;;;;;5031192;28;20167;-50
2022/01/30 10:21:47;;;;;;;5.67;1.83;;;8.20;99.00;;;;;;5031653;28;20214;-52
2022/01/30 10:24:28;;;;;;;8.43;2.53;;;8.30;98.50;;;;;;5031701;28;20180;-55
2022/01/30 10:26:59;;;;;;;7.47;2.33;;;8.00;99.90;;;;;;5032099;28;20184;-55
2022/01/30 10:29:27;;;;;;;11.23;2.27;;;7.60;99.90;;;;;;5031169;28;20172;-57
2022/01/30 10:32:06;;;;;;;6.87;2.30;;;7.30;99.90;;;;;;5031655;28;20588;-52
2022/01/30 10:34:35;;;;;;;4.57;2.10;;;7.20;99.90;;;;;;5031004;28;20196;-52
2022/01/30 10:37:23;;;;;;;9.10;2.40;;;7.00;99.90;;;;;;5031718;28;20632;-51
2022/01/30 10:40:16;;;;;;;7.77;2.23;;;6.70;99.90;;;;;;5031327;28;20175;-55
2022/01/30 10:42:50;;;;;;;8.80;2.80;;;6.60;99.90;;;;;;5031714;28;20192;-53
2022/01/30 10:45:19;;;;;;;6.17;2.23;;;6.40;99.90;;;;;;5031157;28;20179;-53
2022/01/30 10:47:45;;;;;;;10.40;2.73;;;6.40;99.90;;;;;;5031643;28;20652;-54
2022/01/30 10:50:19;;;;;;;6.27;2.23;;;6.30;99.90;;;;;;5031326;28;20266;-56
2022/01/30 10:52:49;;;;;;;8.70;2.80;;;6.30;99.90;;;;;;5031619;28;20207;-51
2022/01/30 10:55:14;;;;;;;6.87;2.30;;;6.20;99.90;;;;;;5030937;28;20246;-57
2022/01/30 10:57:41;;;;;;;7.47;2.30;;;6.20;99.90;;;;;;5031498;28;20176;-55
2022/01/30 11:00:08;;;;;;;7.13;2.73;;;6.10;99.90;;;;;;5031339;28;20245;-50
2022/01/30 11:02:38;;;;;;;8.40;2.67;;;6.00;99.90;;;;;;5031226;28;20200;-56
2022/01/30 11:05:09;;;;;;;5.90;2.47;;;6.00;99.90;;;;;;5031095;28;20176;-53
2022/01/30 11:07:36;;;;;;;7.83;2.43;;;6.00;99.90;;;;;;5031185;28;20171;-55
2022/01/30 11:10:18;;;;;;;8.43;2.70;;;5.90;99.90;;;;;;5031325;28;20641;-57
2022/01/30 11:12:56;;;;;;;6.60;2.17;;;5.90;99.90;;;;;;5031070;28;20196;-55
2022/01/30 11:15:33;;;;;;;5.30;2.47;;;5.80;99.90;;;;;;5030993;28;20211;-49
2022/01/30 11:18:03;;;;;;;6.83;2.07;;;5.80;99.90;;;;;;5031140;28;20302;-53
2022/01/30 11:20:31;;;;;;;11.33;2.60;;;5.80;99.90;;;;;;5031267;28;20528;-52
2022/01/30 11:23:00;;;;;;;7.73;2.67;;;5.70;99.90;;;;;;5031074;28;20564;-51
2022/01/30 11:25:33;;;;;;;7.03;2.37;;;5.70;99.90;;;;;;5031352;28;20552;-49
2022/01/30 11:28:02;;;;;;;7.77;2.27;;;5.70;99.90;;;;;;5031075;28;20250;-52
2022/01/30 11:30:28;;;;;;;5.87;2.10;;;5.70;99.90;;;;;;5033588;28;20532;-51
2022/01/30 11:32:54;;;;;;;8.20;2.33;;;5.80;99.90;;;;;;5034796;28;20192;-53
2022/01/30 11:35:19;;;;;;;9.63;2.87;;;5.90;99.90;;;;;;5034421;28;20541;-57
2022/01/30 11:37:45;;;;;;;7.53;2.10;;;5.90;99.90;;;;;;5034885;28;20222;-55
2022/01/30 11:40:16;;;;;;;7.50;2.87;;;5.80;99.90;;;;;;5034486;28;20175;-57
2022/01/30 11:42:49;;;;;;;6.63;2.30;;;5.70;99.90;;;;;;5034801;28;20202;-57
2022/01/30 11:45:27;;;;;;;8.63;2.57;;;5.70;99.90;;;;;;5034248;28;20167;-55
2022/01/30 11:48:00;;;;;;;9.33;3.00;;;5.70;99.90;;;;;;5034614;28;20290;-56
2022/01/30 11:50:30;;;;;;;5.40;2.40;;;5.60;99.90;;;;;;5034558;28;20548;-54
2022/01/30 11:52:57;;;;;;;4.60;1.90;;;5.60;99.90;;;;;;5034715;28;20199;-52
2022/01/30 11:55:38;;;;;;;10.23;2.97;;;5.60;99.90;;;;;;5033999;28;20227;-52
2022/01/30 11:58:04;;;;;;;6.67;2.10;;;5.60;99.90;;;;;;5034479;28;20199;-53
2022/01/30 12:00:34;;;;;;;7.50;2.40;;;5.70;99.90;;;;;;5034283;28;20202;-49
2022/01/30 12:03:27;;;;;;;7.10;2.23;;;5.70;99.90;;;;;;5103305;22;20259;-58
2022/01/30 12:05:55;;;;;;;6.67;2.53;;;5.50;99.90;;;;;;5026635;28;20196;-55
2022/01/30 12:08:50;;;;;;;9.03;2.40;;;5.40;99.90;;;;;;5032495;28;20180;-58
2022/01/30 12:11:43;;;;;;;8.97;2.40;;;5.40;99.90;;;;;;5033533;28;20182;-58
2022/01/30 12:14:10;;;;;;;5.53;2.00;;;5.50;99.90;;;;;;5029725;28;20235;-61
2022/01/30 12:16:51;;;;;;;7.20;2.70;;;5.40;99.90;;;;;;5033569;28;20273;-54
2022/01/30 12:19:37;;;;;;;5.70;2.00;;;5.40;99.90;;;;;;5033815;28;20171;-56
2022/01/30 12:22:28;;;;;;;7.90;2.30;;;5.50;99.90;;;;;;5032648;28;20172;-58
2022/01/30 12:25:20;;;;;;;6.33;2.43;;;5.40;99.90;;;;;;5033214;28;20238;-58
2022/01/30 12:27:48;;;;;;;8.33;2.00;;;5.40;99.90;;;;;;5033760;28;20172;-59
2022/01/30 12:30:38;;;;;;;7.60;2.57;;;5.30;99.90;;;;;;5033853;28;20259;-61
2022/01/30 12:33:34;;;;;;;7.83;2.37;;;5.30;99.90;;;;;;5033727;28;20171;-59
2022/01/30 12:36:02;;;;;;;5.93;2.30;;;5.30;99.90;;;;;;5033671;28;20498;-59
2022/01/30 12:38:33;;;;;;;7.07;2.37;;;5.30;99.90;;;;;;5033703;28;20512;-57
2022/01/30 12:40:59;;;;;;;5.43;2.30;;;5.30;99.90;;;;;;5032778;28;20524;-59
2022/01/30 12:43:27;;;;;;;4.47;1.60;;;5.30;99.90;;;;;;5033704;28;20275;-61
2022/01/30 12:46:04;;;;;;;6.97;2.27;;;5.20;99.90;;;;;;5033147;28;20171;-60
2022/01/30 12:48:29;;;;;;;7.07;2.10;;;5.20;99.90;;;;;;5033432;28;20155;-61
2022/01/30 12:51:02;;;;;;;8.00;2.60;;;5.40;99.90;;;;;;5033204;28;20195;-61
2022/01/30 12:53:28;;;;;;;7.80;2.13;;;5.50;99.90;;;;;;5033398;28;20186;-61
2022/01/30 12:55:53;;;;;;;5.73;2.20;;;6.60;99.90;;;;;;5032882;28;20172;-61
2022/01/30 12:58:20;;;;;;;4.30;1.77;;;5.50;99.90;;;;;;5033185;28;20241;-61
2022/01/30 13:00:45;;;;;;;7.03;2.33;;;5.60;99.90;;;;;;5032788;28;20630;-60
2022/01/30 13:03:18;;;;;;;6.33;2.03;;;5.70;99.90;;;;;;5033091;28;20188;-59
2022/01/30 13:05:44;;;;;;;6.67;2.40;;;5.60;99.90;;;;;;5033216;28;20631;-59
2022/01/30 13:08:09;;;;;;;7.63;1.93;;;5.50;99.90;;;;;;5032899;28;20246;-61
2022/01/30 13:10:35;;;;;;;5.50;2.10;;;5.50;99.90;;;;;;5033090;28;20294;-61
2022/01/30 13:13:04;;;;;;;4.83;2.00;;;5.60;99.90;;;;;;5032239;28;20258;-60
2022/01/30 13:15:32;;;;;;;7.50;2.20;;;5.50;99.90;;;;;;5030485;28;20302;-61
2022/01/30 13:17:58;;;;;;;5.33;2.20;;;5.50;99.90;;;;;;5030829;28;20195;-58
2022/01/30 13:20:26;;;;;;;6.37;2.27;;;5.50;99.90;;;;;;5031220;28;20163;-57
2022/01/30 13:22:52;;;;;;;6.03;1.97;;;5.60;99.90;;;;;;5030990;28;20671;-54
2022/01/30 13:25:19;;;;;;;8.13;1.93;;;5.50;99.90;;;;;;5030898;28;20523;-56
2022/01/30 13:27:47;;;;;;;6.23;2.00;;;5.50;99.90;;;;;;5030830;28;20184;-58
2022/01/30 13:30:25;;;;;;;11.00;2.33;;;5.50;99.90;;;;;;5031977;28;20164;-56
2022/01/30 13:32:51;;;;;;;7.83;2.10;;;5.50;99.90;;;;;;5032576;28;20175;-58
2022/01/30 13:35:20;;;;;;;6.23;2.13;;;5.40;99.90;;;;;;5032060;28;20580;-57
2022/01/30 13:37:47;;;;;;;5.27;1.93;;;5.40;99.90;;;;;;5032612;28;20560;-53
2022/01/30 13:40:21;;;;;;;8.93;2.20;;;5.40;99.90;;;;;;5032383;28;20206;-56
2022/01/30 13:42:52;;;;;;;7.27;2.23;;;5.40;99.90;;;;;;5031641;28;20174;-56
2022/01/30 13:47:58;;;;;;;7.40;2.40;;;5.40;99.90;;;;;;5032746;28;20206;-57
2022/01/30 13:51:02;;;;;;;6.07;2.40;;;5.50;99.90;;;;;;5032413;28;20168;-58
2022/01/30 13:53:28;;;;;;;8.37;2.53;;;5.40;99.90;;;;;;4971072;28;20252;-60